PWSweather.com
Personal Weather Stations
Station Observations
KNCCHINA3
Red Tractor Trail, China Grove, NC 28023

Red Tractor TrailChina Grove, NC 28023

Lat: 35.59751, Lon: -80.60201

Elevation: 800

Station Type: Oregon Scientific WMR 968

http://www.joesweathergarage.com

High Low Average
Temperature 49.9°F9.9°C 17.1°F-8.3°C 31.9°F-0.1°C
Dew Point 23.8°F-4.6°C 8.8°F-12.9°C 16.3°F-8.7°C
Winds 9.6 mph 15.4 kmh Calm Calm 3.0 mph S4.8 kmh S
Wind Gusts 19.6 mph31.5 kmh -- 6.0 mph9.7 kmh
Humidity 87% 32% 56%
Pressure 30.39 in1029.1 mb 30.15 in1021.0 mb -
Precipitation 0.00 in0.0 mm - -
Hour Temp Dew Point Humidity Winds Wind Gusts Pressure Precip Precip Rate Daily Precip Total
12:00 AM 23.4°F-4.8°C 8.8°F-12.9°C 53% Calm Calm 2.6 mph4.2 kmh 30.33 in1027.1 mb 0.00 in0.0 mm 0.00 in0.0 mm 0.00 in0.0 mm
12:06 AM 23.1°F-4.9°C 8.9°F-12.8°C 54% Calm Calm -- 30.33 in1027.1 mb 0.00 in0.0 mm 0.00 in0.0 mm 0.00 in0.0 mm
12:11 AM 23.1°F-4.9°C 8.9°F-12.8°C 54% Calm Calm -- 30.33 in1027.1 mb 0.00 in0.0 mm 0.00 in0.0 mm 0.00 in0.0 mm
12:16 AM 22.7°F-5.2°C 9.0°F-12.8°C 55% 2.9 mph SSE4.7 kmh SSE 3.2 mph5.1 kmh 30.33 in1027.1 mb 0.00 in0.0 mm 0.00 in0.0 mm 0.00 in0.0 mm
12:21 AM 22.9°F-5.1°C 10.0°F-12.2°C 57% 3.2 mph SSE5.1 kmh SSE 5.0 mph8.0 kmh 30.33 in1027.1 mb 0.00 in0.0 mm 0.00 in0.0 mm 0.00 in0.0 mm
12:26 AM 23.3°F-4.8°C 11.1°F-11.6°C 59% 4.7 mph NNW7.6 kmh NNW 5.4 mph8.7 kmh 30.33 in1027.1 mb 0.00 in0.0 mm 0.00 in0.0 mm 0.00 in0.0 mm
12:31 AM 23.3°F-4.8°C 11.5°F-11.4°C 60% 5.1 mph W8.2 kmh W 7.2 mph11.6 kmh 30.33 in1027.1 mb 0.00 in0.0 mm 0.00 in0.0 mm 0.00 in0.0 mm
12:36 AM 23.3°F-4.8°C 10.8°F-11.8°C 58% 3.5 mph NNW5.6 kmh NNW 7.2 mph11.6 kmh 30.33 in1027.1 mb 0.00 in0.0 mm 0.00 in0.0 mm 0.00 in0.0 mm
12:41 AM 23.1°F-4.9°C 10.2°F-12.1°C 57% 2.6 mph N4.2 kmh N 5.0 mph8.0 kmh 30.33 in1027.1 mb 0.00 in0.0 mm 0.00 in0.0 mm 0.00 in0.0 mm
12:46 AM 22.7°F-5.2°C 10.2°F-12.1°C 58% 2.7 mph ENE4.3 kmh ENE 6.8 mph10.9 kmh 30.33 in1027.1 mb 0.00 in0.0 mm 0.00 in0.0 mm 0.00 in0.0 mm
12:51 AM 22.7°F-5.2°C 9.8°F-12.3°C 57% Calm Calm 6.8 mph10.9 kmh 30.33 in1027.1 mb 0.00 in0.0 mm 0.00 in0.0 mm 0.00 in0.0 mm
12:57 AM 22.9°F-5.1°C 10.4°F-12.0°C 58% 2.3 mph NNE3.7 kmh NNE 4.0 mph6.4 kmh 30.33 in1027.1 mb 0.00 in0.0 mm 0.00 in0.0 mm 0.00 in0.0 mm
01:02 AM 22.5°F-5.3°C 10.0°F-12.2°C 58% 1.8 mph ESE2.9 kmh ESE 4.0 mph6.4 kmh 30.36 in1028.1 mb 0.00 in0.0 mm 0.00 in0.0 mm 0.00 in0.0 mm
01:08 AM 22.4°F-5.3°C 9.9°F-12.3°C 58% 2.8 mph ENE4.5 kmh ENE 4.4 mph7.1 kmh 30.36 in1028.1 mb 0.00 in0.0 mm 0.00 in0.0 mm 0.00 in0.0 mm
01:13 AM 22.4°F-5.3°C 9.9°F-12.3°C 58% 2.3 mph ENE3.7 kmh ENE 4.4 mph7.1 kmh 30.36 in1028.1 mb 0.00 in0.0 mm 0.00 in0.0 mm 0.00 in0.0 mm
01:18 AM 22.5°F-5.3°C 10.8°F-11.8°C 60% 4.2 mph WNW6.8 kmh WNW 5.0 mph8.0 kmh 30.33 in1027.1 mb 0.00 in0.0 mm 0.00 in0.0 mm 0.00 in0.0 mm
01:23 AM 22.4°F-5.3°C 10.7°F-11.8°C 60% 4.7 mph ESE7.6 kmh ESE 5.4 mph8.7 kmh 30.33 in1027.1 mb 0.00 in0.0 mm 0.00 in0.0 mm 0.00 in0.0 mm
01:28 AM 22.0°F-5.6°C 10.7°F-11.8°C 61% 4.3 mph SE6.9 kmh SE 6.8 mph10.9 kmh 30.33 in1027.1 mb 0.00 in0.0 mm 0.00 in0.0 mm 0.00 in0.0 mm
01:33 AM 21.6°F-5.8°C 10.3°F-12.1°C 61% 3.2 mph ESE5.1 kmh ESE 6.8 mph10.9 kmh 30.33 in1027.1 mb 0.00 in0.0 mm 0.00 in0.0 mm 0.00 in0.0 mm
01:39 AM 21.6°F-5.8°C 10.7°F-11.8°C 62% 3.9 mph SSE6.3 kmh SSE 5.0 mph8.0 kmh 30.33 in1027.1 mb 0.00 in0.0 mm 0.00 in0.0 mm 0.00 in0.0 mm
01:44 AM 21.5°F-5.8°C 11.3°F-11.5°C 64% Calm Calm 4.0 mph6.4 kmh 30.33 in1027.1 mb 0.00 in0.0 mm 0.00 in0.0 mm 0.00 in0.0 mm
01:49 AM 21.5°F-5.8°C 10.9°F-11.7°C 63% Calm Calm 3.2 mph5.1 kmh 30.33 in1027.1 mb 0.00 in0.0 mm 0.00 in0.0 mm 0.00 in0.0 mm
01:54 AM 21.3°F-5.9°C 10.4°F-12.0°C 62% Calm Calm -- 30.33 in1027.1 mb 0.00 in0.0 mm 0.00 in0.0 mm 0.00 in0.0 mm
01:59 AM 21.5°F-5.8°C 10.9°F-11.7°C 63% 3.2 mph SSW5.1 kmh SSW 3.2 mph5.1 kmh 30.33 in1027.1 mb 0.00 in0.0 mm 0.00 in0.0 mm 0.00 in0.0 mm
02:04 AM 21.3°F-5.9°C 10.8°F-11.8°C 63% Calm Calm 3.2 mph5.1 kmh 30.33 in1027.1 mb 0.00 in0.0 mm 0.00 in0.0 mm 0.00 in0.0 mm
02:09 AM 21.1°F-6.1°C 10.6°F-11.9°C 63% 3.9 mph SSE6.3 kmh SSE 4.4 mph7.1 kmh 30.33 in1027.1 mb 0.00 in0.0 mm 0.00 in0.0 mm 0.00 in0.0 mm
02:14 AM 20.9°F-6.2°C 11.1°F-11.6°C 65% 2.5 mph SSE4.0 kmh SSE 4.4 mph7.1 kmh 30.33 in1027.1 mb 0.00 in0.0 mm 0.00 in0.0 mm 0.00 in0.0 mm
02:19 AM 21.1°F-6.1°C 12.0°F-11.1°C 67% 4.1 mph SW6.6 kmh SW 5.0 mph8.0 kmh 30.33 in1027.1 mb 0.00 in0.0 mm 0.00 in0.0 mm 0.00 in0.0 mm
02:24 AM 20.9°F-6.2°C 13.4°F-10.3°C 72% 3.2 mph SSW5.1 kmh SSW 5.0 mph8.0 kmh 30.33 in1027.1 mb 0.00 in0.0 mm 0.00 in0.0 mm 0.00 in0.0 mm
02:29 AM 20.7°F-6.3°C 12.9°F-10.6°C 71% 5.5 mph NNE8.9 kmh NNE 6.2 mph10.0 kmh 30.33 in1027.1 mb 0.00 in0.0 mm 0.00 in0.0 mm 0.00 in0.0 mm
02:34 AM 20.4°F-6.4°C 12.9°F-10.6°C 72% Calm Calm 6.2 mph10.0 kmh 30.33 in1027.1 mb 0.00 in0.0 mm 0.00 in0.0 mm 0.00 in0.0 mm
02:39 AM 20.2°F-6.6°C 12.4°F-10.9°C 71% Calm Calm 5.4 mph8.7 kmh 30.33 in1027.1 mb 0.00 in0.0 mm 0.00 in0.0 mm 0.00 in0.0 mm
02:44 AM 20.0°F-6.7°C 12.2°F-11.0°C 71% Calm Calm -- 30.36 in1028.1 mb 0.00 in0.0 mm 0.00 in0.0 mm 0.00 in0.0 mm
02:49 AM 19.9°F-6.7°C 12.0°F-11.1°C 71% Calm Calm -- 30.36 in1028.1 mb 0.00 in0.0 mm 0.00 in0.0 mm 0.00 in0.0 mm
02:54 AM 19.8°F-6.8°C 11.6°F-11.3°C 70% Calm Calm -- 30.36 in1028.1 mb 0.00 in0.0 mm 0.00 in0.0 mm 0.00 in0.0 mm
02:59 AM 19.8°F-6.8°C 11.9°F-11.2°C 71% Calm Calm -- 30.33 in1027.1 mb 0.00 in0.0 mm 0.00 in0.0 mm 0.00 in0.0 mm
03:04 AM 19.8°F-6.8°C 11.6°F-11.3°C 70% 2.4 mph E3.9 kmh E 4.0 mph6.4 kmh 30.33 in1027.1 mb 0.00 in0.0 mm 0.00 in0.0 mm 0.00 in0.0 mm
03:09 AM 19.6°F-6.9°C 11.4°F-11.4°C 70% 2.2 mph E3.5 kmh E 4.4 mph7.1 kmh 30.33 in1027.1 mb 0.00 in0.0 mm 0.00 in0.0 mm 0.00 in0.0 mm
03:14 AM 19.8°F-6.8°C 11.6°F-11.3°C 70% 2.6 mph E4.2 kmh E 4.4 mph7.1 kmh 30.36 in1028.1 mb 0.00 in0.0 mm 0.00 in0.0 mm 0.00 in0.0 mm
03:21 AM 19.8°F-6.8°C 12.5°F-10.8°C 73% Calm Calm 3.2 mph5.1 kmh 30.36 in1028.1 mb 0.00 in0.0 mm 0.00 in0.0 mm 0.00 in0.0 mm
03:26 AM 19.8°F-6.8°C 12.5°F-10.8°C 73% 2.8 mph E4.5 kmh E 3.2 mph5.1 kmh 30.36 in1028.1 mb 0.00 in0.0 mm 0.00 in0.0 mm 0.00 in0.0 mm
03:33 AM 19.6°F-6.9°C 12.6°F-10.8°C 74% 2.2 mph NNE3.5 kmh NNE 4.4 mph7.1 kmh 30.30 in1026.1 mb 0.00 in0.0 mm 0.00 in0.0 mm 0.00 in0.0 mm
03:38 AM 19.8°F-6.8°C 13.4°F-10.3°C 76% 3.6 mph SSW5.8 kmh SSW 4.4 mph7.1 kmh 30.30 in1026.1 mb 0.00 in0.0 mm 0.00 in0.0 mm 0.00 in0.0 mm
03:43 AM 20.0°F-6.7°C 14.0°F-10.0°C 77% 4.4 mph NNW7.1 kmh NNW 5.0 mph8.0 kmh 30.30 in1026.1 mb 0.00 in0.0 mm 0.00 in0.0 mm 0.00 in0.0 mm
03:48 AM 19.9°F-6.7°C 14.1°F-9.9°C 78% 4.0 mph SSE6.4 kmh SSE 5.0 mph8.0 kmh 30.36 in1028.1 mb 0.00 in0.0 mm 0.00 in0.0 mm 0.00 in0.0 mm
03:53 AM 19.8°F-6.8°C 13.7°F-10.2°C 77% 2.1 mph SSE3.4 kmh SSE 5.0 mph8.0 kmh 30.36 in1028.1 mb 0.00 in0.0 mm 0.00 in0.0 mm 0.00 in0.0 mm
03:58 AM 19.6°F-6.9°C 12.9°F-10.6°C 75% Calm Calm 5.0 mph8.0 kmh 30.36 in1028.1 mb 0.00 in0.0 mm 0.00 in0.0 mm 0.00 in0.0 mm
04:03 AM 19.4°F-7.0°C 12.5°F-10.8°C 74% Calm Calm 4.0 mph6.4 kmh 30.33 in1027.1 mb 0.00 in0.0 mm 0.00 in0.0 mm 0.00 in0.0 mm
04:08 AM 19.4°F-7.0°C 12.5°F-10.8°C 74% 3.5 mph SSE5.6 kmh SSE 4.4 mph7.1 kmh 30.33 in1027.1 mb 0.00 in0.0 mm 0.00 in0.0 mm 0.00 in0.0 mm
04:14 AM 19.6°F-6.9°C 13.8°F-10.1°C 78% 3.4 mph WSW5.5 kmh WSW 5.8 mph9.3 kmh 30.33 in1027.1 mb 0.00 in0.0 mm 0.00 in0.0 mm 0.00 in0.0 mm
04:19 AM 19.4°F-7.0°C 13.9°F-10.1°C 79% 1.8 mph WSW2.9 kmh WSW 5.8 mph9.3 kmh 30.33 in1027.1 mb 0.00 in0.0 mm 0.00 in0.0 mm 0.00 in0.0 mm
04:24 AM 19.2°F-7.1°C 13.1°F-10.5°C 77% Calm Calm 3.2 mph5.1 kmh 30.33 in1027.1 mb 0.00 in0.0 mm 0.00 in0.0 mm 0.00 in0.0 mm
04:29 AM 19.0°F-7.2°C 13.2°F-10.4°C 78% Calm Calm -- 30.33 in1027.1 mb 0.00 in0.0 mm 0.00 in0.0 mm 0.00 in0.0 mm
04:35 AM 18.7°F-7.4°C 12.9°F-10.6°C 78% Calm Calm -- 30.33 in1027.1 mb 0.00 in0.0 mm 0.00 in0.0 mm 0.00 in0.0 mm
04:40 AM 19.0°F-7.2°C 13.2°F-10.4°C 78% 4.6 mph WSW7.4 kmh WSW 5.0 mph8.0 kmh 30.33 in1027.1 mb 0.00 in0.0 mm 0.00 in0.0 mm 0.00 in0.0 mm
04:45 AM 19.0°F-7.2°C 13.8°F-10.1°C 80% 3.4 mph W5.5 kmh W 5.0 mph8.0 kmh 30.33 in1027.1 mb 0.00 in0.0 mm 0.00 in0.0 mm 0.00 in0.0 mm
04:50 AM 18.9°F-7.3°C 14.0°F-10.0°C 81% Calm Calm 4.4 mph7.1 kmh 30.33 in1027.1 mb 0.00 in0.0 mm 0.00 in0.0 mm 0.00 in0.0 mm
04:55 AM 18.5°F-7.5°C 13.3°F-10.4°C 80% Calm Calm 2.6 mph4.2 kmh 30.33 in1027.1 mb 0.00 in0.0 mm 0.00 in0.0 mm 0.00 in0.0 mm
05:00 AM 18.3°F-7.6°C 13.1°F-10.5°C 80% Calm Calm -- 30.33 in1027.1 mb 0.00 in0.0 mm 0.00 in0.0 mm 0.00 in0.0 mm
05:05 AM 18.1°F-7.7°C 12.9°F-10.6°C 80% Calm Calm -- 30.33 in1027.1 mb 0.00 in0.0 mm 0.00 in0.0 mm 0.00 in0.0 mm
05:11 AM 18.1°F-7.7°C 12.9°F-10.6°C 80% 1.8 mph S2.9 kmh S 2.6 mph4.2 kmh 30.33 in1027.1 mb 0.00 in0.0 mm 0.00 in0.0 mm 0.00 in0.0 mm
05:16 AM 18.1°F-7.7°C 13.2°F-10.4°C 81% 4.9 mph S7.9 kmh S 5.4 mph8.7 kmh 30.30 in1026.1 mb 0.00 in0.0 mm 0.00 in0.0 mm 0.00 in0.0 mm
05:21 AM 18.3°F-7.6°C 13.7°F-10.2°C 82% 2.6 mph S4.2 kmh S 5.4 mph8.7 kmh 30.30 in1026.1 mb 0.00 in0.0 mm 0.00 in0.0 mm 0.00 in0.0 mm
05:27 AM 18.1°F-7.7°C 13.5°F-10.3°C 82% 3.5 mph S5.6 kmh S 4.4 mph7.1 kmh 30.30 in1026.1 mb 0.00 in0.0 mm 0.00 in0.0 mm 0.00 in0.0 mm
05:32 AM 18.0°F-7.8°C 13.1°F-10.5°C 81% 2.2 mph SSE3.5 kmh SSE 4.4 mph7.1 kmh 30.36 in1028.1 mb 0.00 in0.0 mm 0.00 in0.0 mm 0.00 in0.0 mm
05:39 AM 17.8°F-7.9°C 12.6°F-10.8°C 80% Calm Calm 3.2 mph5.1 kmh 30.36 in1028.1 mb 0.00 in0.0 mm 0.00 in0.0 mm 0.00 in0.0 mm
05:44 AM 17.8°F-7.9°C 12.9°F-10.6°C 81% Calm Calm 2.6 mph4.2 kmh 30.36 in1028.1 mb 0.00 in0.0 mm 0.00 in0.0 mm 0.00 in0.0 mm
05:49 AM 17.6°F-8.0°C 13.0°F-10.6°C 82% Calm Calm 2.6 mph4.2 kmh 30.36 in1028.1 mb 0.00 in0.0 mm 0.00 in0.0 mm 0.00 in0.0 mm
05:54 AM 17.4°F-8.1°C 12.5°F-10.8°C 81% 3.2 mph SSE5.1 kmh SSE 4.4 mph7.1 kmh 30.36 in1028.1 mb 0.00 in0.0 mm 0.00 in0.0 mm 0.00 in0.0 mm
05:59 AM 17.1°F-8.3°C 12.5°F-10.8°C 82% 2.1 mph SSE3.4 kmh SSE 4.4 mph7.1 kmh 30.33 in1027.1 mb 0.00 in0.0 mm 0.00 in0.0 mm 0.00 in0.0 mm
06:04 AM 17.1°F-8.3°C 12.2°F-11.0°C 81% 4.8 mph SSE7.7 kmh SSE 5.4 mph8.7 kmh 30.33 in1027.1 mb 0.00 in0.0 mm 0.00 in0.0 mm 0.00 in0.0 mm
06:10 AM 17.6°F-8.0°C 13.0°F-10.6°C 82% 3.4 mph SW5.5 kmh SW 5.4 mph8.7 kmh 30.33 in1027.1 mb 0.00 in0.0 mm 0.00 in0.0 mm 0.00 in0.0 mm
06:15 AM 17.6°F-8.0°C 13.0°F-10.6°C 82% Calm Calm 4.4 mph7.1 kmh 30.30 in1026.1 mb 0.00 in0.0 mm 0.00 in0.0 mm 0.00 in0.0 mm
06:21 AM 17.2°F-8.2°C 12.6°F-10.8°C 82% 2.8 mph ESE4.5 kmh ESE 3.2 mph5.1 kmh 30.30 in1026.1 mb 0.00 in0.0 mm 0.00 in0.0 mm 0.00 in0.0 mm
06:26 AM 17.2°F-8.2°C 12.6°F-10.8°C 82% 3.3 mph SSE5.3 kmh SSE 4.0 mph6.4 kmh 30.30 in1026.1 mb 0.00 in0.0 mm 0.00 in0.0 mm 0.00 in0.0 mm
06:31 AM 17.2°F-8.2°C 12.9°F-10.6°C 83% Calm Calm 4.0 mph6.4 kmh 30.33 in1027.1 mb 0.00 in0.0 mm 0.00 in0.0 mm 0.00 in0.0 mm
06:36 AM 17.4°F-8.1°C 12.8°F-10.7°C 82% Calm Calm 2.2 mph3.5 kmh 30.33 in1027.1 mb 0.00 in0.0 mm 0.00 in0.0 mm 0.00 in0.0 mm
06:43 AM 17.4°F-8.1°C 12.8°F-10.7°C 82% Calm Calm -- 30.33 in1027.1 mb 0.00 in0.0 mm 0.00 in0.0 mm 0.00 in0.0 mm
06:48 AM 17.6°F-8.0°C 13.3°F-10.4°C 83% 2.3 mph SSE3.7 kmh SSE 3.2 mph5.1 kmh 30.36 in1028.1 mb 0.00 in0.0 mm 0.00 in0.0 mm 0.00 in0.0 mm
06:53 AM 17.6°F-8.0°C 13.3°F-10.4°C 83% 2.1 mph SSE3.4 kmh SSE 3.2 mph5.1 kmh 30.36 in1028.1 mb 0.00 in0.0 mm 0.00 in0.0 mm 0.00 in0.0 mm
06:58 AM 17.8°F-7.9°C 13.5°F-10.3°C 83% 2.4 mph SSE3.9 kmh SSE 2.6 mph4.2 kmh 30.36 in1028.1 mb 0.00 in0.0 mm 0.00 in0.0 mm 0.00 in0.0 mm
07:03 AM 17.6°F-8.0°C 13.3°F-10.4°C 83% Calm Calm 2.6 mph4.2 kmh 30.36 in1028.1 mb 0.00 in0.0 mm 0.00 in0.0 mm 0.00 in0.0 mm
07:08 AM 17.6°F-8.0°C 13.5°F-10.3°C 84% 2.1 mph SSE3.4 kmh SSE 2.6 mph4.2 kmh 30.36 in1028.1 mb 0.00 in0.0 mm 0.00 in0.0 mm 0.00 in0.0 mm
07:14 AM 17.4°F-8.1°C 13.3°F-10.4°C 84% Calm Calm 2.6 mph4.2 kmh 30.36 in1028.1 mb 0.00 in0.0 mm 0.00 in0.0 mm 0.00 in0.0 mm
07:19 AM 17.4°F-8.1°C 13.3°F-10.4°C 84% Calm Calm -- 30.36 in1028.1 mb 0.00 in0.0 mm 0.00 in0.0 mm 0.00 in0.0 mm
07:26 AM 17.4°F-8.1°C 13.1°F-10.5°C 83% Calm Calm -- 30.36 in1028.1 mb 0.00 in0.0 mm 0.00 in0.0 mm 0.00 in0.0 mm
07:31 AM 17.6°F-8.0°C 13.5°F-10.3°C 84% Calm Calm -- 30.36 in1028.1 mb 0.00 in0.0 mm 0.00 in0.0 mm 0.00 in0.0 mm
07:36 AM 18.1°F-7.7°C 14.0°F-10.0°C 84% Calm Calm -- 30.36 in1028.1 mb 0.00 in0.0 mm 0.00 in0.0 mm 0.00 in0.0 mm
07:41 AM 18.7°F-7.4°C 14.9°F-9.5°C 85% Calm Calm -- 30.36 in1028.1 mb 0.00 in0.0 mm 0.00 in0.0 mm 0.00 in0.0 mm
07:47 AM 19.4°F-7.0°C 15.5°F-9.2°C 85% 2.5 mph SSE4.0 kmh SSE 3.2 mph5.1 kmh 30.36 in1028.1 mb 0.00 in0.0 mm 0.00 in0.0 mm 0.00 in0.0 mm
07:52 AM 20.4°F-6.4°C 16.6°F-8.6°C 85% 2.2 mph SSE3.5 kmh SSE 3.2 mph5.1 kmh 30.36 in1028.1 mb 0.00 in0.0 mm 0.00 in0.0 mm 0.00 in0.0 mm
07:57 AM 22.2°F-5.4°C 18.7°F-7.4°C 86% Calm Calm 3.2 mph5.1 kmh 30.36 in1028.1 mb 0.00 in0.0 mm 0.00 in0.0 mm 0.00 in0.0 mm
08:02 AM 23.3°F-4.8°C 20.0°F-6.7°C 87% 4.8 mph SSE7.7 kmh SSE 5.4 mph8.7 kmh 30.36 in1028.1 mb 0.00 in0.0 mm 0.00 in0.0 mm 0.00 in0.0 mm
08:07 AM 23.6°F-4.7°C 19.8°F-6.8°C 85% Calm Calm 5.4 mph8.7 kmh 30.36 in1028.1 mb 0.00 in0.0 mm 0.00 in0.0 mm 0.00 in0.0 mm
08:12 AM 23.8°F-4.6°C 20.0°F-6.7°C 85% 2.0 mph SSE3.2 kmh SSE 3.2 mph5.1 kmh 30.36 in1028.1 mb 0.00 in0.0 mm 0.00 in0.0 mm 0.00 in0.0 mm
08:18 AM 24.3°F-4.3°C 19.9°F-6.7°C 83% Calm Calm 2.2 mph3.5 kmh 30.36 in1028.1 mb 0.00 in0.0 mm 0.00 in0.0 mm 0.00 in0.0 mm
08:23 AM 24.7°F-4.1°C 20.0°F-6.7°C 82% Calm Calm -- 30.36 in1028.1 mb 0.00 in0.0 mm 0.00 in0.0 mm 0.00 in0.0 mm
08:28 AM 25.4°F-3.7°C 20.7°F-6.3°C 82% 3.2 mph SSE5.1 kmh SSE 3.2 mph5.1 kmh 30.36 in1028.1 mb 0.00 in0.0 mm 0.00 in0.0 mm 0.00 in0.0 mm
08:33 AM 25.8°F-3.4°C 20.8°F-6.2°C 81% 2.0 mph SSE3.2 kmh SSE 4.0 mph6.4 kmh 30.36 in1028.1 mb 0.00 in0.0 mm 0.00 in0.0 mm 0.00 in0.0 mm
08:39 AM 26.1°F-3.3°C 20.8°F-6.2°C 80% Calm Calm 4.0 mph6.4 kmh 30.36 in1028.1 mb 0.00 in0.0 mm 0.00 in0.0 mm 0.00 in0.0 mm
08:44 AM 26.3°F-3.2°C 20.1°F-6.6°C 77% Calm Calm -- 30.39 in1029.1 mb 0.00 in0.0 mm 0.00 in0.0 mm 0.00 in0.0 mm
08:49 AM 26.5°F-3.1°C 19.1°F-7.2°C 73% 4.8 mph S7.7 kmh S 5.4 mph8.7 kmh 30.39 in1029.1 mb 0.00 in0.0 mm 0.00 in0.0 mm 0.00 in0.0 mm
08:54 AM 26.7°F-2.9°C 18.3°F-7.6°C 70% 4.0 mph S6.4 kmh S 5.8 mph9.3 kmh 30.39 in1029.1 mb 0.00 in0.0 mm 0.00 in0.0 mm 0.00 in0.0 mm
09:00 AM 27.0°F-2.8°C 17.6°F-8.0°C 67% 4.2 mph SSE6.8 kmh SSE 6.2 mph10.0 kmh 30.36 in1028.1 mb 0.00 in0.0 mm 0.00 in0.0 mm 0.00 in0.0 mm
09:11 AM 28.1°F-2.2°C 17.2°F-8.2°C 63% 4.7 mph SSE7.6 kmh SSE 7.2 mph11.6 kmh 30.36 in1028.1 mb 0.00 in0.0 mm 0.00 in0.0 mm 0.00 in0.0 mm
09:19 AM 29.0°F-1.7°C 16.1°F-8.8°C 58% 4.8 mph S7.7 kmh S 9.4 mph15.1 kmh 30.36 in1028.1 mb 0.00 in0.0 mm 0.00 in0.0 mm 0.00 in0.0 mm
09:24 AM 29.4°F-1.4°C 15.7°F-9.1°C 56% 5.6 mph S9.0 kmh S 9.4 mph15.1 kmh 30.36 in1028.1 mb 0.00 in0.0 mm 0.00 in0.0 mm 0.00 in0.0 mm
09:29 AM 30.1°F-1.1°C 16.3°F-8.7°C 56% 4.2 mph S6.8 kmh S 9.4 mph15.1 kmh 30.39 in1029.1 mb 0.00 in0.0 mm 0.00 in0.0 mm 0.00 in0.0 mm
09:34 AM 31.4°F-0.3°C 17.1°F-8.3°C 55% 5.6 mph S9.0 kmh S 8.6 mph13.8 kmh 30.39 in1029.1 mb 0.00 in0.0 mm 0.00 in0.0 mm 0.00 in0.0 mm
09:39 AM 32.4°F0.2°C 16.7°F-8.5°C 52% 7.4 mph S11.9 kmh S 9.8 mph15.8 kmh 30.39 in1029.1 mb 0.00 in0.0 mm 0.00 in0.0 mm 0.00 in0.0 mm
09:44 AM 32.6°F0.3°C 16.4°F-8.7°C 51% 7.1 mph S11.4 kmh S 9.8 mph15.8 kmh 30.39 in1029.1 mb 0.00 in0.0 mm 0.00 in0.0 mm 0.00 in0.0 mm
09:49 AM 33.2°F0.7°C 17.0°F-8.3°C 51% 5.5 mph S8.9 kmh S 9.8 mph15.8 kmh 30.39 in1029.1 mb 0.00 in0.0 mm 0.00 in0.0 mm 0.00 in0.0 mm
09:55 AM 33.9°F1.1°C 17.2°F-8.2°C 50% 6.3 mph SSW10.1 kmh SSW 9.0 mph14.5 kmh 30.39 in1029.1 mb 0.00 in0.0 mm 0.00 in0.0 mm 0.00 in0.0 mm
10:00 AM 34.2°F1.2°C 17.4°F-8.1°C 50% 6.0 mph S9.7 kmh S 9.0 mph14.5 kmh 30.39 in1029.1 mb 0.00 in0.0 mm 0.00 in0.0 mm 0.00 in0.0 mm
10:05 AM 35.1°F1.7°C 18.3°F-7.6°C 50% 4.0 mph S6.4 kmh S 8.0 mph12.9 kmh 30.39 in1029.1 mb 0.00 in0.0 mm 0.00 in0.0 mm 0.00 in0.0 mm
10:10 AM 35.7°F2.1°C 18.3°F-7.6°C 49% 5.4 mph S8.7 kmh S 10.8 mph17.4 kmh 30.39 in1029.1 mb 0.00 in0.0 mm 0.00 in0.0 mm 0.00 in0.0 mm
10:16 AM 36.2°F2.3°C 17.8°F-7.9°C 47% 5.9 mph S9.5 kmh S 12.0 mph19.3 kmh 30.36 in1028.1 mb 0.00 in0.0 mm 0.00 in0.0 mm 0.00 in0.0 mm
10:21 AM 36.9°F2.7°C 18.9°F-7.3°C 48% 7.0 mph S11.3 kmh S 8.0 mph12.9 kmh 30.36 in1028.1 mb 0.00 in0.0 mm 0.00 in0.0 mm 0.00 in0.0 mm
10:27 AM 37.8°F3.2°C 18.8°F-7.3°C 46% 6.7 mph S10.8 kmh S 8.0 mph12.9 kmh 30.36 in1028.1 mb 0.00 in0.0 mm 0.00 in0.0 mm 0.00 in0.0 mm
10:32 AM 38.0°F3.3°C 18.9°F-7.3°C 46% 6.9 mph SSE11.1 kmh SSE 9.8 mph15.8 kmh 30.36 in1028.1 mb 0.00 in0.0 mm 0.00 in0.0 mm 0.00 in0.0 mm
10:37 AM 38.4°F3.6°C 18.8°F-7.3°C 45% 6.6 mph S10.6 kmh S 9.8 mph15.8 kmh 30.36 in1028.1 mb 0.00 in0.0 mm 0.00 in0.0 mm 0.00 in0.0 mm
10:42 AM 38.4°F3.6°C 18.2°F-7.7°C 44% 5.4 mph SW8.7 kmh SW 9.0 mph14.5 kmh 30.36 in1028.1 mb 0.00 in0.0 mm 0.00 in0.0 mm 0.00 in0.0 mm
10:47 AM 37.5°F3.1°C 16.9°F-8.4°C 43% 6.6 mph S10.6 kmh S 9.0 mph14.5 kmh 30.36 in1028.1 mb 0.00 in0.0 mm 0.00 in0.0 mm 0.00 in0.0 mm
10:52 AM 37.1°F2.8°C 17.0°F-8.3°C 44% 8.2 mph S13.2 kmh S 9.8 mph15.8 kmh 30.36 in1028.1 mb 0.00 in0.0 mm 0.00 in0.0 mm 0.00 in0.0 mm
11:22 AM 39.5°F4.2°C 18.1°F-7.7°C 42% 6.6 mph S10.6 kmh S 12.0 mph19.3 kmh 30.30 in1026.1 mb 0.00 in0.0 mm 0.00 in0.0 mm 0.00 in0.0 mm
11:31 AM 40.5°F4.7°C 19.0°F-7.2°C 42% 7.2 mph S11.6 kmh S 12.6 mph20.3 kmh 30.30 in1026.1 mb 0.00 in0.0 mm 0.00 in0.0 mm 0.00 in0.0 mm
11:36 AM 40.5°F4.7°C 18.4°F-7.6°C 41% 5.9 mph W9.5 kmh W 12.6 mph20.3 kmh 30.30 in1026.1 mb 0.00 in0.0 mm 0.00 in0.0 mm 0.00 in0.0 mm
11:41 AM 41.8°F5.4°C 19.6°F-6.9°C 41% 5.2 mph SW8.4 kmh SW 7.2 mph11.6 kmh 30.30 in1026.1 mb 0.00 in0.0 mm 0.00 in0.0 mm 0.00 in0.0 mm
11:46 AM 41.8°F5.4°C 19.0°F-7.2°C 40% 7.8 mph S12.6 kmh S 13.4 mph21.6 kmh 30.36 in1028.1 mb 0.00 in0.0 mm 0.00 in0.0 mm 0.00 in0.0 mm
11:51 AM 42.2°F5.7°C 20.0°F-6.7°C 41% 5.0 mph SW8.0 kmh SW 13.4 mph21.6 kmh 30.36 in1028.1 mb 0.00 in0.0 mm 0.00 in0.0 mm 0.00 in0.0 mm
11:56 AM 42.2°F5.7°C 19.4°F-7.0°C 40% 6.3 mph SSW10.1 kmh SSW 11.2 mph18.0 kmh 30.36 in1028.1 mb 0.00 in0.0 mm 0.00 in0.0 mm 0.00 in0.0 mm
12:01 PM 42.3°F5.7°C 19.5°F-6.9°C 40% 6.9 mph WSW11.1 kmh WSW 10.8 mph17.4 kmh 30.33 in1027.1 mb 0.00 in0.0 mm 0.00 in0.0 mm 0.00 in0.0 mm
12:06 PM 42.0°F5.6°C 19.2°F-7.1°C 40% 6.6 mph WSW10.6 kmh WSW 11.2 mph18.0 kmh 30.33 in1027.1 mb 0.00 in0.0 mm 0.00 in0.0 mm 0.00 in0.0 mm
12:11 PM 42.7°F5.9°C 19.8°F-6.8°C 40% 5.6 mph S9.0 kmh S 11.2 mph18.0 kmh 30.33 in1027.1 mb 0.00 in0.0 mm 0.00 in0.0 mm 0.00 in0.0 mm
12:16 PM 43.6°F6.4°C 20.7°F-6.3°C 40% 4.4 mph WSW7.1 kmh WSW 9.4 mph15.1 kmh 30.30 in1026.1 mb 0.00 in0.0 mm 0.00 in0.0 mm 0.00 in0.0 mm
12:21 PM 45.0°F7.2°C 21.3°F-5.9°C 39% 5.0 mph SW8.0 kmh SW 7.6 mph12.2 kmh 30.30 in1026.1 mb 0.00 in0.0 mm 0.00 in0.0 mm 0.00 in0.0 mm
12:26 PM 45.4°F7.4°C 21.7°F-5.7°C 39% 4.8 mph SW7.7 kmh SW 7.6 mph12.2 kmh 30.30 in1026.1 mb 0.00 in0.0 mm 0.00 in0.0 mm 0.00 in0.0 mm
12:31 PM 45.6°F7.6°C 21.2°F-6.0°C 38% 9.5 mph WSW15.3 kmh WSW 13.0 mph20.9 kmh 30.27 in1025.1 mb 0.00 in0.0 mm 0.00 in0.0 mm 0.00 in0.0 mm
12:37 PM 45.2°F7.3°C 20.9°F-6.2°C 38% 5.7 mph WNW9.2 kmh WNW 13.0 mph20.9 kmh 30.27 in1025.1 mb 0.00 in0.0 mm 0.00 in0.0 mm 0.00 in0.0 mm
12:41 PM 45.2°F7.3°C 20.9°F-6.2°C 38% 7.3 mph W11.7 kmh W 14.8 mph23.8 kmh 30.27 in1025.1 mb 0.00 in0.0 mm 0.00 in0.0 mm 0.00 in0.0 mm
12:47 PM 46.8°F8.2°C 22.3°F-5.4°C 38% 4.5 mph SSW7.2 kmh SSW 14.8 mph23.8 kmh 30.27 in1025.1 mb 0.00 in0.0 mm 0.00 in0.0 mm 0.00 in0.0 mm
12:52 PM 47.4°F8.6°C 22.8°F-5.1°C 38% 5.7 mph SW9.2 kmh SW 12.0 mph19.3 kmh 30.27 in1025.1 mb 0.00 in0.0 mm 0.00 in0.0 mm 0.00 in0.0 mm
12:57 PM 47.4°F8.6°C 22.2°F-5.4°C 37% 4.9 mph S7.9 kmh S 12.0 mph19.3 kmh 30.27 in1025.1 mb 0.00 in0.0 mm 0.00 in0.0 mm 0.00 in0.0 mm
01:02 PM 46.8°F8.2°C 21.6°F-5.8°C 37% 6.7 mph WSW10.8 kmh WSW 11.6 mph18.7 kmh 30.24 in1024.0 mb 0.00 in0.0 mm 0.00 in0.0 mm 0.00 in0.0 mm
01:07 PM 48.3°F9.1°C 23.0°F-5.0°C 37% 4.5 mph S7.2 kmh S 11.6 mph18.7 kmh 30.24 in1024.0 mb 0.00 in0.0 mm 0.00 in0.0 mm 0.00 in0.0 mm
01:12 PM 48.6°F9.2°C 23.2°F-4.9°C 37% 4.5 mph SE7.2 kmh SE 9.0 mph14.5 kmh 30.24 in1024.0 mb 0.00 in0.0 mm 0.00 in0.0 mm 0.00 in0.0 mm
01:17 PM 48.3°F9.1°C 23.0°F-5.0°C 37% 7.4 mph S11.9 kmh S 11.6 mph18.7 kmh 30.24 in1024.0 mb 0.00 in0.0 mm 0.00 in0.0 mm 0.00 in0.0 mm
01:23 PM 48.3°F9.1°C 23.0°F-5.0°C 37% 3.3 mph SW5.3 kmh SW 11.6 mph18.7 kmh 30.24 in1024.0 mb 0.00 in0.0 mm 0.00 in0.0 mm 0.00 in0.0 mm
01:28 PM 48.6°F9.2°C 23.2°F-4.9°C 37% 7.1 mph SSW11.4 kmh SSW 9.8 mph15.8 kmh 30.24 in1024.0 mb 0.00 in0.0 mm 0.00 in0.0 mm 0.00 in0.0 mm
01:33 PM 48.6°F9.2°C 22.6°F-5.2°C 36% 4.9 mph S7.9 kmh S 12.6 mph20.3 kmh 30.21 in1023.0 mb 0.00 in0.0 mm 0.00 in0.0 mm 0.00 in0.0 mm
01:38 PM 49.2°F9.6°C 23.8°F-4.6°C 37% 4.7 mph S7.6 kmh S 12.6 mph20.3 kmh 30.21 in1023.0 mb 0.00 in0.0 mm 0.00 in0.0 mm 0.00 in0.0 mm
01:43 PM 49.5°F9.7°C 22.7°F-5.2°C 35% 7.3 mph S11.7 kmh S 10.8 mph17.4 kmh 30.21 in1023.0 mb 0.00 in0.0 mm 0.00 in0.0 mm 0.00 in0.0 mm
01:48 PM 49.5°F9.7°C 23.4°F-4.8°C 36% 6.3 mph SSW10.1 kmh SSW 12.6 mph20.3 kmh 30.24 in1024.0 mb 0.00 in0.0 mm 0.00 in0.0 mm 0.00 in0.0 mm
01:54 PM 49.4°F9.7°C 22.6°F-5.2°C 35% 5.2 mph S8.4 kmh S 12.6 mph20.3 kmh 30.24 in1024.0 mb 0.00 in0.0 mm 0.00 in0.0 mm 0.00 in0.0 mm
01:59 PM 49.9°F9.9°C 22.4°F-5.3°C 34% 9.1 mph SW14.6 kmh SW 14.4 mph23.2 kmh 30.21 in1023.0 mb 0.00 in0.0 mm 0.00 in0.0 mm 0.00 in0.0 mm
02:04 PM 48.3°F9.1°C 20.3°F-6.5°C 33% 7.2 mph W11.6 kmh W 14.4 mph23.2 kmh 30.21 in1023.0 mb 0.00 in0.0 mm 0.00 in0.0 mm 0.00 in0.0 mm
02:09 PM 48.6°F9.2°C 20.5°F-6.4°C 33% 6.6 mph SSW10.6 kmh SSW 10.8 mph17.4 kmh 30.21 in1023.0 mb 0.00 in0.0 mm 0.00 in0.0 mm 0.00 in0.0 mm
02:14 PM 48.3°F9.1°C 21.0°F-6.1°C 34% 5.8 mph SW9.3 kmh SW 9.0 mph14.5 kmh 30.21 in1023.0 mb 0.00 in0.0 mm 0.00 in0.0 mm 0.00 in0.0 mm
02:19 PM 48.6°F9.2°C 20.5°F-6.4°C 33% 6.5 mph WSW10.5 kmh WSW 9.4 mph15.1 kmh 30.21 in1023.0 mb 0.00 in0.0 mm 0.00 in0.0 mm 0.00 in0.0 mm
02:25 PM 48.8°F9.3°C 21.4°F-5.9°C 34% 7.1 mph S11.4 kmh S 19.6 mph31.5 kmh 30.21 in1023.0 mb 0.00 in0.0 mm 0.00 in0.0 mm 0.00 in0.0 mm
02:30 PM 48.8°F9.3°C 20.7°F-6.3°C 33% 7.5 mph S12.1 kmh S 19.6 mph31.5 kmh 30.21 in1023.0 mb 0.00 in0.0 mm 0.00 in0.0 mm 0.00 in0.0 mm
02:36 PM 47.9°F8.8°C 19.9°F-6.7°C 33% 6.3 mph SW10.1 kmh SW 15.2 mph24.5 kmh 30.21 in1023.0 mb 0.00 in0.0 mm 0.00 in0.0 mm 0.00 in0.0 mm
02:41 PM 47.4°F8.6°C 20.2°F-6.6°C 34% 8.2 mph SSW13.2 kmh SSW 12.0 mph19.3 kmh 30.21 in1023.0 mb 0.00 in0.0 mm 0.00 in0.0 mm 0.00 in0.0 mm
02:46 PM 47.0°F8.3°C 19.8°F-6.8°C 34% 7.0 mph WSW11.3 kmh WSW 12.0 mph19.3 kmh 30.18 in1022.0 mb 0.00 in0.0 mm 0.00 in0.0 mm 0.00 in0.0 mm
02:51 PM 46.8°F8.2°C 18.9°F-7.3°C 33% 6.8 mph SW10.9 kmh SW 10.8 mph17.4 kmh 30.18 in1022.0 mb 0.00 in0.0 mm 0.00 in0.0 mm 0.00 in0.0 mm
02:56 PM 47.0°F8.3°C 19.8°F-6.8°C 34% 5.0 mph SW8.0 kmh SW 10.8 mph17.4 kmh 30.18 in1022.0 mb 0.00 in0.0 mm 0.00 in0.0 mm 0.00 in0.0 mm
03:01 PM 47.2°F8.4°C 19.3°F-7.1°C 33% 6.8 mph SW10.9 kmh SW 10.8 mph17.4 kmh 30.18 in1022.0 mb 0.00 in0.0 mm 0.00 in0.0 mm 0.00 in0.0 mm
03:06 PM 47.0°F8.3°C 19.1°F-7.2°C 33% 7.3 mph SW11.7 kmh SW 11.2 mph18.0 kmh 30.18 in1022.0 mb 0.00 in0.0 mm 0.00 in0.0 mm 0.00 in0.0 mm
03:11 PM 47.9°F8.8°C 21.3°F-5.9°C 35% 4.7 mph SSW7.6 kmh SSW 11.2 mph18.0 kmh 30.18 in1022.0 mb 0.00 in0.0 mm 0.00 in0.0 mm 0.00 in0.0 mm
03:18 PM 48.1°F8.9°C 20.1°F-6.6°C 33% 6.2 mph S10.0 kmh S 12.6 mph20.3 kmh 30.21 in1023.0 mb 0.00 in0.0 mm 0.00 in0.0 mm 0.00 in0.0 mm
03:23 PM 47.9°F8.8°C 19.2°F-7.1°C 32% 9.6 mph S15.4 kmh S 15.2 mph24.5 kmh 30.21 in1023.0 mb 0.00 in0.0 mm 0.00 in0.0 mm 0.00 in0.0 mm
03:28 PM 47.6°F8.7°C 18.9°F-7.3°C 32% 8.4 mph SW13.5 kmh SW 15.2 mph24.5 kmh 30.21 in1023.0 mb 0.00 in0.0 mm 0.00 in0.0 mm 0.00 in0.0 mm
03:33 PM 47.0°F8.3°C 19.8°F-6.8°C 34% 4.4 mph SW7.1 kmh SW 14.4 mph23.2 kmh 30.18 in1022.0 mb 0.00 in0.0 mm 0.00 in0.0 mm 0.00 in0.0 mm
03:38 PM 47.0°F8.3°C 19.8°F-6.8°C 34% 5.5 mph S8.9 kmh S 11.2 mph18.0 kmh 30.18 in1022.0 mb 0.00 in0.0 mm 0.00 in0.0 mm 0.00 in0.0 mm
03:43 PM 46.8°F8.2°C 19.6°F-6.9°C 34% 6.8 mph SSW10.9 kmh SSW 8.6 mph13.8 kmh 30.18 in1022.0 mb 0.00 in0.0 mm 0.00 in0.0 mm 0.00 in0.0 mm
03:48 PM 46.8°F8.2°C 19.6°F-6.9°C 34% 5.7 mph SSW9.2 kmh SSW 8.6 mph13.8 kmh 30.18 in1022.0 mb 0.00 in0.0 mm 0.00 in0.0 mm 0.00 in0.0 mm
03:54 PM 47.2°F8.4°C 20.0°F-6.7°C 34% 7.3 mph S11.7 kmh S 11.2 mph18.0 kmh 30.18 in1022.0 mb 0.00 in0.0 mm 0.00 in0.0 mm 0.00 in0.0 mm
03:59 PM 47.2°F8.4°C 19.3°F-7.1°C 33% 5.8 mph SW9.3 kmh SW 11.2 mph18.0 kmh 30.18 in1022.0 mb 0.00 in0.0 mm 0.00 in0.0 mm 0.00 in0.0 mm
04:04 PM 47.0°F8.3°C 18.4°F-7.6°C 32% 5.4 mph SW8.7 kmh SW 11.2 mph18.0 kmh 30.18 in1022.0 mb 0.00 in0.0 mm 0.00 in0.0 mm 0.00 in0.0 mm
04:09 PM 46.8°F8.2°C 18.9°F-7.3°C 33% 6.3 mph S10.1 kmh S 11.2 mph18.0 kmh 30.18 in1022.0 mb 0.00 in0.0 mm 0.00 in0.0 mm 0.00 in0.0 mm
04:14 PM 46.7°F8.2°C 19.5°F-6.9°C 34% 4.0 mph SSW6.4 kmh SSW 10.8 mph17.4 kmh 30.18 in1022.0 mb 0.00 in0.0 mm 0.00 in0.0 mm 0.00 in0.0 mm
04:20 PM 46.7°F8.2°C 19.5°F-6.9°C 34% 7.7 mph SSW12.4 kmh SSW 11.2 mph18.0 kmh 30.18 in1022.0 mb 0.00 in0.0 mm 0.00 in0.0 mm 0.00 in0.0 mm
04:24 PM 46.5°F8.1°C 19.4°F-7.0°C 34% 5.3 mph SW8.5 kmh SW 11.2 mph18.0 kmh 30.18 in1022.0 mb 0.00 in0.0 mm 0.00 in0.0 mm 0.00 in0.0 mm
04:30 PM 46.3°F7.9°C 19.2°F-7.1°C 34% 5.8 mph WSW9.3 kmh WSW 8.0 mph12.9 kmh 30.18 in1022.0 mb 0.00 in0.0 mm 0.00 in0.0 mm 0.00 in0.0 mm
04:35 PM 46.3°F7.9°C 19.9°F-6.7°C 35% 4.4 mph SSW7.1 kmh SSW 8.0 mph12.9 kmh 30.18 in1022.0 mb 0.00 in0.0 mm 0.00 in0.0 mm 0.00 in0.0 mm
04:40 PM 46.1°F7.8°C 19.0°F-7.2°C 34% 5.4 mph SW8.7 kmh SW 7.6 mph12.2 kmh 30.18 in1022.0 mb 0.00 in0.0 mm 0.00 in0.0 mm 0.00 in0.0 mm
04:45 PM 45.8°F7.7°C 18.8°F-7.3°C 34% 5.2 mph WSW8.4 kmh WSW 8.0 mph12.9 kmh 30.18 in1022.0 mb 0.00 in0.0 mm 0.00 in0.0 mm 0.00 in0.0 mm
04:50 PM 45.8°F7.7°C 19.4°F-7.0°C 35% 5.3 mph SW8.5 kmh SW 8.0 mph12.9 kmh 30.18 in1022.0 mb 0.00 in0.0 mm 0.00 in0.0 mm 0.00 in0.0 mm
04:55 PM 45.4°F7.4°C 19.1°F-7.2°C 35% 3.9 mph SSW6.3 kmh SSW 7.2 mph11.6 kmh 30.18 in1022.0 mb 0.00 in0.0 mm 0.00 in0.0 mm 0.00 in0.0 mm
05:00 PM 45.2°F7.3°C 18.9°F-7.3°C 35% 3.7 mph SSW6.0 kmh SSW 5.8 mph9.3 kmh 30.18 in1022.0 mb 0.00 in0.0 mm 0.00 in0.0 mm 0.00 in0.0 mm
05:05 PM 45.2°F7.3°C 19.6°F-6.9°C 36% 3.6 mph SSW5.8 kmh SSW 6.2 mph10.0 kmh 30.18 in1022.0 mb 0.00 in0.0 mm 0.00 in0.0 mm 0.00 in0.0 mm
05:10 PM 45.0°F7.2°C 19.4°F-7.0°C 36% 3.8 mph S6.1 kmh S 6.2 mph10.0 kmh 30.18 in1022.0 mb 0.00 in0.0 mm 0.00 in0.0 mm 0.00 in0.0 mm
05:15 PM 44.9°F7.2°C 20.0°F-6.7°C 37% 2.6 mph SSE4.2 kmh SSE 5.0 mph8.0 kmh 30.15 in1021.0 mb 0.00 in0.0 mm 0.00 in0.0 mm 0.00 in0.0 mm
05:21 PM 44.5°F6.9°C 19.6°F-6.9°C 37% 2.3 mph SSE3.7 kmh SSE 4.4 mph7.1 kmh 30.15 in1021.0 mb 0.00 in0.0 mm 0.00 in0.0 mm 0.00 in0.0 mm
05:26 PM 44.1°F6.7°C 19.9°F-6.7°C 38% 2.9 mph SSE4.7 kmh SSE 5.8 mph9.3 kmh 30.15 in1021.0 mb 0.00 in0.0 mm 0.00 in0.0 mm 0.00 in0.0 mm
05:31 PM 43.6°F6.4°C 19.4°F-7.0°C 38% 3.4 mph SSE5.5 kmh SSE 5.8 mph9.3 kmh 30.15 in1021.0 mb 0.00 in0.0 mm 0.00 in0.0 mm 0.00 in0.0 mm
05:36 PM 43.4°F6.3°C 19.2°F-7.1°C 38% 3.0 mph SSE4.8 kmh SSE 5.0 mph8.0 kmh 30.15 in1021.0 mb 0.00 in0.0 mm 0.00 in0.0 mm 0.00 in0.0 mm
05:41 PM 42.5°F5.8°C 18.4°F-7.6°C 38% Calm Calm 4.4 mph7.1 kmh 30.15 in1021.0 mb 0.00 in0.0 mm 0.00 in0.0 mm 0.00 in0.0 mm
05:46 PM 41.6°F5.3°C 17.6°F-8.0°C 38% Calm Calm 3.2 mph5.1 kmh 30.15 in1021.0 mb 0.00 in0.0 mm 0.00 in0.0 mm 0.00 in0.0 mm
05:51 PM 41.3°F5.2°C 17.4°F-8.1°C 38% Calm Calm -- 30.15 in1021.0 mb 0.00 in0.0 mm 0.00 in0.0 mm 0.00 in0.0 mm
05:56 PM 40.9°F4.9°C 17.0°F-8.3°C 38% Calm Calm -- 30.15 in1021.0 mb 0.00 in0.0 mm 0.00 in0.0 mm 0.00 in0.0 mm
06:03 PM 40.2°F4.6°C 17.0°F-8.3°C 39% Calm Calm -- 30.15 in1021.0 mb 0.00 in0.0 mm 0.00 in0.0 mm 0.00 in0.0 mm
06:08 PM 39.6°F4.2°C 16.5°F-8.6°C 39% Calm Calm -- 30.15 in1021.0 mb 0.00 in0.0 mm 0.00 in0.0 mm 0.00 in0.0 mm
06:13 PM 39.3°F4.1°C 16.2°F-8.8°C 39% Calm Calm -- 30.15 in1021.0 mb 0.00 in0.0 mm 0.00 in0.0 mm 0.00 in0.0 mm
06:18 PM 38.7°F3.7°C 15.6°F-9.1°C 39% Calm Calm -- 30.15 in1021.0 mb 0.00 in0.0 mm 0.00 in0.0 mm 0.00 in0.0 mm
06:23 PM 38.4°F3.6°C 16.0°F-8.9°C 40% Calm Calm -- 30.15 in1021.0 mb 0.00 in0.0 mm 0.00 in0.0 mm 0.00 in0.0 mm
06:28 PM 38.2°F3.4°C 15.8°F-9.0°C 40% Calm Calm -- 30.15 in1021.0 mb 0.00 in0.0 mm 0.00 in0.0 mm 0.00 in0.0 mm
06:37 PM 37.7°F3.2°C 15.3°F-9.3°C 40% Calm Calm -- 30.15 in1021.0 mb 0.00 in0.0 mm 0.00 in0.0 mm 0.00 in0.0 mm
06:42 PM 37.3°F2.9°C 15.6°F-9.1°C 41% Calm Calm -- 30.15 in1021.0 mb 0.00 in0.0 mm 0.00 in0.0 mm 0.00 in0.0 mm
06:47 PM 36.9°F2.7°C 15.2°F-9.3°C 41% Calm Calm -- 30.15 in1021.0 mb 0.00 in0.0 mm 0.00 in0.0 mm 0.00 in0.0 mm
06:52 PM 36.2°F2.3°C 15.1°F-9.4°C 42% Calm Calm -- 30.15 in1021.0 mb 0.00 in0.0 mm 0.00 in0.0 mm 0.00 in0.0 mm
06:58 PM 35.7°F2.1°C 14.7°F-9.6°C 42% Calm Calm -- 30.15 in1021.0 mb 0.00 in0.0 mm 0.00 in0.0 mm 0.00 in0.0 mm
07:03 PM 35.0°F1.7°C 14.6°F-9.7°C 43% Calm Calm -- 30.15 in1021.0 mb 0.00 in0.0 mm 0.00 in0.0 mm 0.00 in0.0 mm
07:08 PM 34.4°F1.3°C 14.6°F-9.7°C 44% Calm Calm -- 30.15 in1021.0 mb 0.00 in0.0 mm 0.00 in0.0 mm 0.00 in0.0 mm
07:13 PM 34.2°F1.2°C 14.4°F-9.8°C 44% Calm Calm -- 30.15 in1021.0 mb 0.00 in0.0 mm 0.00 in0.0 mm 0.00 in0.0 mm
07:18 PM 34.2°F1.2°C 14.4°F-9.8°C 44% Calm Calm -- 30.15 in1021.0 mb 0.00 in0.0 mm 0.00 in0.0 mm 0.00 in0.0 mm
07:23 PM 34.1°F1.2°C 14.8°F-9.6°C 45% Calm Calm -- 30.15 in1021.0 mb 0.00 in0.0 mm 0.00 in0.0 mm 0.00 in0.0 mm
07:28 PM 33.9°F1.1°C 14.7°F-9.6°C 45% Calm Calm -- 30.15 in1021.0 mb 0.00 in0.0 mm 0.00 in0.0 mm 0.00 in0.0 mm
07:33 PM 33.9°F1.1°C 14.7°F-9.6°C 45% Calm Calm -- 30.18 in1022.0 mb 0.00 in0.0 mm 0.00 in0.0 mm 0.00 in0.0 mm
07:39 PM 33.7°F0.9°C 15.5°F-9.2°C 47% Calm Calm -- 30.18 in1022.0 mb 0.00 in0.0 mm 0.00 in0.0 mm 0.00 in0.0 mm
07:44 PM 33.2°F0.7°C 15.5°F-9.2°C 48% Calm Calm -- 30.15 in1021.0 mb 0.00 in0.0 mm 0.00 in0.0 mm 0.00 in0.0 mm
07:50 PM 32.6°F0.3°C 15.5°F-9.2°C 49% Calm Calm -- 30.15 in1021.0 mb 0.00 in0.0 mm 0.00 in0.0 mm 0.00 in0.0 mm
07:55 PM 32.6°F0.3°C 15.5°F-9.2°C 49% Calm Calm -- 30.15 in1021.0 mb 0.00 in0.0 mm 0.00 in0.0 mm 0.00 in0.0 mm
08:01 PM 33.0°F0.6°C 15.9°F-8.9°C 49% Calm Calm -- 30.15 in1021.0 mb 0.00 in0.0 mm 0.00 in0.0 mm 0.00 in0.0 mm
08:06 PM 33.2°F0.7°C 16.5°F-8.6°C 50% Calm Calm -- 30.15 in1021.0 mb 0.00 in0.0 mm 0.00 in0.0 mm 0.00 in0.0 mm
08:11 PM 33.2°F0.7°C 16.5°F-8.6°C 50% Calm Calm -- 30.15 in1021.0 mb 0.00 in0.0 mm 0.00 in0.0 mm 0.00 in0.0 mm
08:16 PM 33.2°F0.7°C 16.5°F-8.6°C 50% Calm Calm 2.2 mph3.5 kmh 30.15 in1021.0 mb 0.00 in0.0 mm 0.00 in0.0 mm 0.00 in0.0 mm
08:21 PM 33.0°F0.6°C 16.8°F-8.4°C 51% Calm Calm 2.2 mph3.5 kmh 30.15 in1021.0 mb 0.00 in0.0 mm 0.00 in0.0 mm 0.00 in0.0 mm
08:26 PM 32.4°F0.2°C 16.7°F-8.5°C 52% 1.8 mph ESE2.9 kmh ESE 1.8 mph2.9 kmh 30.15 in1021.0 mb 0.00 in0.0 mm 0.00 in0.0 mm 0.00 in0.0 mm
08:32 PM 32.6°F0.3°C 16.9°F-8.4°C 52% Calm Calm 2.6 mph4.2 kmh 30.15 in1021.0 mb 0.00 in0.0 mm 0.00 in0.0 mm 0.00 in0.0 mm
08:37 PM 33.0°F0.6°C 17.3°F-8.2°C 52% Calm Calm 2.6 mph4.2 kmh 30.15 in1021.0 mb 0.00 in0.0 mm 0.00 in0.0 mm 0.00 in0.0 mm
08:42 PM 33.3°F0.7°C 17.5°F-8.1°C 52% 3.1 mph SSW5.0 kmh SSW 3.2 mph5.1 kmh 30.15 in1021.0 mb 0.00 in0.0 mm 0.00 in0.0 mm 0.00 in0.0 mm
08:47 PM 34.4°F1.3°C 19.0°F-7.2°C 53% 4.0 mph S6.4 kmh S 6.2 mph10.0 kmh 30.12 in1020.0 mb 0.00 in0.0 mm 0.00 in0.0 mm 0.00 in0.0 mm
08:52 PM 35.9°F2.2°C 20.4°F-6.4°C 53% 5.3 mph S8.5 kmh S 7.2 mph11.6 kmh 30.12 in1020.0 mb 0.00 in0.0 mm 0.00 in0.0 mm 0.00 in0.0 mm
08:57 PM 36.6°F2.6°C 20.6°F-6.3°C 52% 4.7 mph SSW7.6 kmh SSW 7.2 mph11.6 kmh 30.12 in1020.0 mb 0.00 in0.0 mm 0.00 in0.0 mm 0.00 in0.0 mm
09:02 PM 37.1°F2.8°C 21.1°F-6.1°C 52% 4.2 mph S6.8 kmh S 6.8 mph10.9 kmh 30.18 in1022.0 mb 0.00 in0.0 mm 0.00 in0.0 mm 0.00 in0.0 mm
09:07 PM 37.3°F2.9°C 20.8°F-6.2°C 51% 3.5 mph S5.6 kmh S 6.8 mph10.9 kmh 30.18 in1022.0 mb 0.00 in0.0 mm 0.00 in0.0 mm 0.00 in0.0 mm
09:12 PM 37.3°F2.9°C 20.3°F-6.5°C 50% Calm Calm 5.8 mph9.3 kmh 30.18 in1022.0 mb 0.00 in0.0 mm 0.00 in0.0 mm 0.00 in0.0 mm
09:17 PM 37.1°F2.8°C 20.1°F-6.6°C 50% 4.6 mph S7.4 kmh S 7.2 mph11.6 kmh 30.15 in1021.0 mb 0.00 in0.0 mm 0.00 in0.0 mm 0.00 in0.0 mm
09:22 PM 37.7°F3.2°C 20.7°F-6.3°C 50% 3.1 mph S5.0 kmh S 7.2 mph11.6 kmh 30.15 in1021.0 mb 0.00 in0.0 mm 0.00 in0.0 mm 0.00 in0.0 mm
09:27 PM 37.8°F3.2°C 20.3°F-6.5°C 49% 5.1 mph S8.2 kmh S 6.8 mph10.9 kmh 30.15 in1021.0 mb 0.00 in0.0 mm 0.00 in0.0 mm 0.00 in0.0 mm
09:32 PM 38.2°F3.4°C 20.6°F-6.3°C 49% 5.6 mph S9.0 kmh S 6.8 mph10.9 kmh 30.15 in1021.0 mb 0.00 in0.0 mm 0.00 in0.0 mm 0.00 in0.0 mm
09:37 PM 38.4°F3.6°C 20.8°F-6.2°C 49% 5.5 mph S8.9 kmh S 6.8 mph10.9 kmh 30.15 in1021.0 mb 0.00 in0.0 mm 0.00 in0.0 mm 0.00 in0.0 mm
09:43 PM 38.2°F3.4°C 20.6°F-6.3°C 49% 5.4 mph S8.7 kmh S 6.2 mph10.0 kmh 30.15 in1021.0 mb 0.00 in0.0 mm 0.00 in0.0 mm 0.00 in0.0 mm
09:48 PM 38.4°F3.6°C 20.3°F-6.5°C 48% 5.8 mph S9.3 kmh S 7.2 mph11.6 kmh 30.15 in1021.0 mb 0.00 in0.0 mm 0.00 in0.0 mm 0.00 in0.0 mm
09:54 PM 38.2°F3.4°C 20.1°F-6.6°C 48% 5.5 mph S8.9 kmh S 7.2 mph11.6 kmh 30.15 in1021.0 mb 0.00 in0.0 mm 0.00 in0.0 mm 0.00 in0.0 mm
09:59 PM 37.5°F3.1°C 19.5°F-6.9°C 48% 4.5 mph S7.2 kmh S 7.2 mph11.6 kmh 30.15 in1021.0 mb 0.00 in0.0 mm 0.00 in0.0 mm 0.00 in0.0 mm
10:04 PM 37.3°F2.9°C 19.8°F-6.8°C 49% 4.0 mph S6.4 kmh S 6.2 mph10.0 kmh 30.15 in1021.0 mb 0.00 in0.0 mm 0.00 in0.0 mm 0.00 in0.0 mm
10:09 PM 36.8°F2.7°C 19.4°F-7.0°C 49% 5.0 mph S8.0 kmh S 6.2 mph10.0 kmh 30.15 in1021.0 mb 0.00 in0.0 mm 0.00 in0.0 mm 0.00 in0.0 mm
10:14 PM 36.9°F2.7°C 19.4°F-7.0°C 49% 5.6 mph S9.0 kmh S 6.8 mph10.9 kmh 30.12 in1020.0 mb 0.00 in0.0 mm 0.00 in0.0 mm 0.00 in0.0 mm
10:19 PM 36.8°F2.7°C 19.4°F-7.0°C 49% 5.5 mph S8.9 kmh S 6.8 mph10.9 kmh 30.12 in1020.0 mb 0.00 in0.0 mm 0.00 in0.0 mm 0.00 in0.0 mm
10:26 PM 35.9°F2.2°C 18.5°F-7.5°C 49% 3.7 mph SSE6.0 kmh SSE 6.2 mph10.0 kmh 30.12 in1020.0 mb 0.00 in0.0 mm 0.00 in0.0 mm 0.00 in0.0 mm
10:31 PM 35.7°F2.1°C 18.3°F-7.6°C 49% 2.8 mph SSE4.5 kmh SSE 5.0 mph8.0 kmh 30.15 in1021.0 mb 0.00 in0.0 mm 0.00 in0.0 mm 0.00 in0.0 mm
10:36 PM 35.0°F1.7°C 18.2°F-7.7°C 50% Calm Calm 5.0 mph8.0 kmh 30.15 in1021.0 mb 0.00 in0.0 mm 0.00 in0.0 mm 0.00 in0.0 mm
10:41 PM 34.4°F1.3°C 17.6°F-8.0°C 50% Calm Calm 1.8 mph2.9 kmh 30.15 in1021.0 mb 0.00 in0.0 mm 0.00 in0.0 mm 0.00 in0.0 mm
10:46 PM 33.9°F1.1°C 17.2°F-8.2°C 50% Calm Calm -- 30.15 in1021.0 mb 0.00 in0.0 mm 0.00 in0.0 mm 0.00 in0.0 mm
10:51 PM 33.5°F0.8°C 16.8°F-8.4°C 50% Calm Calm -- 30.15 in1021.0 mb 0.00 in0.0 mm 0.00 in0.0 mm 0.00 in0.0 mm
10:57 PM 33.2°F0.7°C 16.5°F-8.6°C 50% Calm Calm -- 30.15 in1021.0 mb 0.00 in0.0 mm 0.00 in0.0 mm 0.00 in0.0 mm
11:02 PM 33.0°F0.6°C 16.3°F-8.7°C 50% Calm Calm -- 30.15 in1021.0 mb 0.00 in0.0 mm 0.00 in0.0 mm 0.00 in0.0 mm
11:07 PM 33.0°F0.6°C 16.8°F-8.4°C 51% Calm Calm -- 30.15 in1021.0 mb 0.00 in0.0 mm 0.00 in0.0 mm 0.00 in0.0 mm
11:12 PM 32.6°F0.3°C 16.4°F-8.7°C 51% Calm Calm -- 30.15 in1021.0 mb 0.00 in0.0 mm 0.00 in0.0 mm 0.00 in0.0 mm
11:17 PM 32.4°F0.2°C 16.2°F-8.8°C 51% Calm Calm -- 30.15 in1021.0 mb 0.00 in0.0 mm 0.00 in0.0 mm 0.00 in0.0 mm
11:22 PM 32.1°F0.1°C 16.0°F-8.9°C 51% Calm Calm -- 30.15 in1021.0 mb 0.00 in0.0 mm 0.00 in0.0 mm 0.00 in0.0 mm
11:27 PM 31.7°F-0.2°C 15.6°F-9.1°C 51% Calm Calm -- 30.15 in1021.0 mb 0.00 in0.0 mm 0.00 in0.0 mm 0.00 in0.0 mm
11:32 PM 31.5°F-0.3°C 15.4°F-9.2°C 51% Calm Calm -- 30.12 in1020.0 mb 0.00 in0.0 mm 0.00 in0.0 mm 0.00 in0.0 mm
11:38 PM 31.2°F-0.4°C 15.6°F-9.1°C 52% Calm Calm -- 30.12 in1020.0 mb 0.00 in0.0 mm 0.00 in0.0 mm 0.00 in0.0 mm
11:43 PM 30.8°F-0.7°C 15.2°F-9.3°C 52% Calm Calm -- 30.12 in1020.0 mb 0.00 in0.0 mm 0.00 in0.0 mm 0.00 in0.0 mm
11:49 PM 30.6°F-0.8°C 15.0°F-9.4°C 52% Calm Calm -- 30.12 in1020.0 mb 0.00 in0.0 mm 0.00 in0.0 mm 0.00 in0.0 mm
11:54 PM 30.5°F-0.8°C 15.4°F-9.2°C 53% Calm Calm -- 30.12 in1020.0 mb 0.00 in0.0 mm 0.00 in0.0 mm 0.00 in0.0 mm
11:59 PM 30.6°F-0.8°C 15.5°F-9.2°C 53% Calm Calm -- 30.15 in1021.0 mb 0.00 in0.0 mm 0.00 in0.0 mm 0.00 in0.0 mm